Morgan, Georgia
Current Conditions -  °F | °C
As of 10:15 AM on Monday 24 Nov 2014 (Local Time) from KBIJ Reporting Station
Overcast Overcast  
Wind Chill: 72°   Ceiling: 500
Heat Index: 72°   Visibility: 7mi
Dew Point: 70°   Wind: 6mph
Humidity: 94%   Direction: 230°SW
Pressure: 29.88"   Gusts: NA
Location:  31.54°N, 84.6°W
Report Text: KBIJ 241515Z AUTO 23005KT 7SM BKN005 OVC012 22/21 A2988 RMK AO2 LTG DSNT E
Loading
Personal Weather Stations






























Interactive Weather Map New forecast layout! Learn more

10-Day Weather Forecast

Advertisements
Track Severe Weather on mobile